Data for 07/14/2010

Time Sea-Level Adjusted Pressure Absolute Pressure Temperature Relative Humidity Dew Point   
(mb) (inHg) (mb) (inHg) (C) (F) (%) (C) (F)
00:05 1018 30.06 848 25.04 12.3 54.1 41 -0.7 30.8
00:10 1018 30.06 848 25.04 12.3 54.2 38 -1.4 29.5
00:15 1018 30.06 848 25.04 12.4 54.2 36 -2.1 28.2
00:20 1018 30.06 848 25.04 12.4 54.3 36 -2.3 27.9
00:25 1019 30.09 848 25.04 12.3 54.2 35 -2.6 27.4
00:30 1019 30.09 848 25.04 12.2 54 37 -2.1 28.2
00:35 1019 30.09 848 25.04 12.1 53.8 36 -2.4 27.6
00:40 1019 30.09 848 25.04 12 53.6 36 -2.5 27.5
00:45 1019 30.09 848 25.04 11.9 53.4 36 -2.5 27.6
00:50 1019 30.09 848 25.04 11.8 53.2 37 -2.2 28
00:55 1019 30.09 848 25.04 11.7 53 38 -2.2 28.1
01:00 1019 30.09 848 25.04 11.6 52.8 39 -1.9 28.6
01:05 1019 30.09 848 25.04 11.5 52.6 39 -1.9 28.7
01:10 1019 30.09 848 25.04 11.4 52.5 40 -1.7 28.9
01:15 1019 30.09 848 25.04 11.3 52.3 42 -1.1 30
01:20 1019 30.09 848 25.04 11.1 51.9 44 -0.6 31
01:25 1019 30.09 849 25.07 10.8 51.4 46 -0.4 31.2
01:30 1019 30.09 849 25.07 10.5 51 47 -0.4 31.4
01:35 1020 30.12 849 25.07 10.3 50.5 49 0.2 32.3
01:40 1020 30.12 849 25.07 9.9 49.8 50 0.1 32.2
01:45 1020 30.12 849 25.07 9.5 49 52 0.1 32.1
01:50 1020 30.12 849 25.07 9.4 48.8 51 -0.3 31.4
01:55 1019 30.09 849 25.07 9.2 48.6 49 -0.9 30.4
02:00 1020 30.12 849 25.07 9.1 48.4 49 -1.1 30
02:05 1020 30.12 849 25.07 9.2 48.5 48 -1.2 29.8
02:10 1020 30.12 849 25.07 9.1 48.4 48 -1.4 29.5
02:15 1020 30.12 849 25.07 9 48.3 48 -1.4 29.4
02:20 1020 30.12 849 25.07 9 48.3 46 -1.8 28.8
02:25 1020 30.12 849 25.07 9 48.2 47 -1.6 29.1
02:30 1020 30.12 849 25.07 8.9 48 47 -1.9 28.6
02:35 1020 30.12 849 25.07 8.9 47.9 46 -2.2 28.1
02:40 1020 30.12 849 25.07 8.8 47.8 47 -1.8 28.7
02:45 1020 30.12 849 25.07 8.4 47.2 47 -2.1 28.2
02:50 1020 30.12 849 25.07 8.4 47.1 47 -2.3 27.9
02:55 1020 30.12 849 25.07 8.4 47 47 -2.2 28
03:00 1020 30.12 849 25.07 7.8 46.1 52 -1.3 29.6
03:05 1020 30.12 849 25.07 7.2 44.9 52 -1.9 28.5
03:10 1020 30.12 849 25.07 7.5 45.5 49 -2.6 27.4
03:15 1020 30.12 849 25.07 8 46.4 47 -2.7 27.2
03:20 1020 30.12 850 25.1 8.1 46.6 46 -2.8 27
03:25 1020 30.12 850 25.1 8.2 46.7 46 -2.9 26.9
03:30 1021 30.15 850 25.1 8.1 46.6 47 -2.5 27.6
03:35 1021 30.15 850 25.1 8 46.4 47 -2.7 27.2
03:40 1021 30.15 850 25.1 8.1 46.5 46 -2.8 27
03:45 1021 30.15 850 25.1 8.1 46.6 46 -2.9 26.8
03:50 1021 30.15 850 25.1 8.3 46.9 44 -3.2 26.3
03:55 1021 30.15 850 25.1 8.6 47.4 43 -3.4 25.9
04:00 1021 30.15 850 25.1 8.5 47.4 45 -2.8 26.9
04:05 1021 30.15 850 25.1 8.3 46.9 44 -3.2 26.3
04:10 1021 30.15 850 25.1 8.5 47.2 43 -3.2 26.2
04:15 1021 30.15 850 25.1 8.6 47.4 41 -3.8 25.1
04:20 1021 30.15 850 25.1 8.7 47.7 43 -3.2 26.3
04:25 1021 30.15 850 25.1 8.6 47.4 43 -3.3 26.1
04:30 1021 30.15 850 25.1 8.7 47.6 41 -3.7 25.4
04:35 1021 30.15 850 25.1 8.9 48.1 42 -3.4 25.9
04:40 1021 30.15 850 25.1 8.7 47.6 44 -2.9 26.8
04:45 1021 30.15 851 25.13 8.4 47.1 44 -3.1 26.4
04:50 1021 30.15 851 25.13 8.2 46.7 45 -3 26.7
04:55 1021 30.15 851 25.13 8 46.5 45 -3.2 26.2
05:00 1021 30.15 851 25.13 8.2 46.7 44 -3.4 25.8
05:05 1021 30.15 851 25.13 8.4 47.2 43 -3.5 25.7
05:10 1022 30.18 851 25.13 8.5 47.3 43 -3.4 25.8
05:15 1022 30.18 851 25.13 8.5 47.3 43 -3.2 26.3
05:20 1022 30.18 851 25.13 8.5 47.2 44 -3 26.5
05:25 1022 30.18 851 25.13 8 46.5 47 -2.6 27.3
05:30 1022 30.18 851 25.13 7.8 46 47 -2.9 26.8
05:35 1022 30.18 851 25.13 7.9 46.3 45 -3.1 26.3
05:40 1022 30.18 851 25.13 8 46.4 45 -3.1 26.4
05:45 1022 30.18 851 25.13 8.2 46.8 44 -3.3 26.1
05:50 1022 30.18 851 25.13 8.3 47 44 -3.3 26.1
05:55 1022 30.18 851 25.13 8.4 47.2 44 -3.1 26.4
06:00 1022 30.18 851 25.13 8.5 47.3 44 -3.2 26.3
06:05 1022 30.18 852 25.16 8.3 47 46 -2.7 27.1
06:10 1022 30.18 852 25.16 8 46.3 46 -2.9 26.7
06:15 1022 30.18 852 25.16 8.1 46.7 45 -3 26.5
06:20 1023 30.21 852 25.16 8.4 47 44 -3 26.6
06:25 1023 30.21 852 25.16 8.5 47.2 44 -3.1 26.4
06:30 1023 30.21 852 25.16 8.6 47.5 44 -3 26.6
06:35 1023 30.21 852 25.16 8.4 47.1 45 -2.8 27
06:40 1023 30.21 852 25.16 8.2 46.7 46 -2.7 27.1
06:45 1023 30.21 852 25.16 8.1 46.5 47 -2.5 27.5
06:50 1023 30.21 852 25.16 8 46.4 48 -2.3 27.8
06:55 1023 30.21 852 25.16 8.1 46.6 46 -2.9 26.8
07:00 1023 30.21 852 25.16 8.6 47.5 45 -2.6 27.3
07:05 1023 30.21 852 25.16 8.8 47.8 48 -1.7 29
07:10 1023 30.21 852 25.16 9 48.1 47 -1.7 29
07:15 1023 30.21 852 25.16 9.4 48.9 44 -2.1 28.2
07:20 1023 30.21 852 25.16 9.9 49.8 42 -2.3 27.9
07:25 1023 30.21 852 25.16 10.4 50.7 41 -2.3 27.8
07:30 1023 30.21 852 25.16 10.9 51.7 40 -2.1 28.3
07:35 1023 30.21 852 25.16 11 51.7 42 -1.4 29.5
07:40 1023 30.21 852 25.16 11.3 52.4 42 -0.9 30.3
07:45 1023 30.21 853 25.19 11.8 53.2 41 -1 30.1
07:50 1023 30.21 853 25.19 12.1 53.8 40 -1.2 29.9
07:55 1023 30.21 853 25.19 11.9 53.3 41 -1 30.2
08:00 1023 30.21 853 25.19 11.7 53 39 -1.7 28.9
08:05 1023 30.21 853 25.19 12.3 54.1 36 -2.2 28
08:10 1023 30.21 853 25.19 12.4 54.4 37 -1.9 28.6
08:15 1023 30.21 853 25.19 12.6 54.6 37 -1.8 28.7
08:20 1023 30.21 853 25.19 11.9 53.5 38 -2 28.4
08:25 1023 30.21 853 25.19 11.7 53.1 38 -2.2 28
08:30 1024 30.24 853 25.19 11.8 53.2 36 -2.7 27.2
08:35 1024 30.24 853 25.19 12.3 54.1 36 -2.2 28.1
08:40 1024 30.24 853 25.19 12.1 53.8 35 -2.9 26.7
08:45 1024 30.24 853 25.19 12.3 54.1 36 -2.5 27.5
08:50 1024 30.24 853 25.19 11.8 53.3 38 -2 28.3
08:55 1024 30.24 853 25.19 12.2 53.9 37 -2.2 28
09:00 1024 30.24 853 25.19 12.6 54.7 36 -2 28.4
09:05 1024 30.24 853 25.19 12.7 54.8 36 -1.9 28.5
09:10 1024 30.24 853 25.19 13.3 56 32 -2.9 26.8
09:15 1024 30.24 853 25.19 14 57.2 32 -2.4 27.6
09:20 1024 30.24 853 25.19 13 55.4 33 -2.7 27.2
09:25 1024 30.24 853 25.19 13.4 56.2 32 -2.7 27.1
09:30 1024 30.24 853 25.19 13.7 56.7 31 -2.9 26.9
09:35 1024 30.24 853 25.19 14.1 57.4 32 -2.2 28
09:40 1024 30.24 853 25.19 14.4 58 32 -2.1 28.1
09:45 1024 30.24 853 25.19 14.7 58.5 32 -1.6 29.2
09:50 1024 30.24 853 25.19 14.6 58.3 30 -2.6 27.3
09:55 1024 30.24 853 25.19 14.5 58 31 -2.6 27.4
10:00 1024 30.24 853 25.19 14.8 58.6 30 -2.6 27.4
10:05 1024 30.24 853 25.19 14.7 58.5 31 -2.1 28.2
10:10 1024 30.24 853 25.19 15.2 59.3 31 -1.6 29.1
10:15 1024 30.24 853 25.19 14.9 58.9 32 -1.7 29
10:20 1024 30.24 853 25.19 14.7 58.5 30 -2.7 27.2
10:25 1024 30.24 853 25.19 14.8 58.7 30 -2.4 27.6
10:30 1024 30.24 853 25.19 15.5 59.8 29 -2.3 27.9
10:35 1024 30.24 853 25.19 15.8 60.4 29 -2.2 28
10:40 1024 30.24 853 25.19 15.5 60 29 -2.2 28
10:45 1024 30.24 853 25.19 15.5 59.8 30 -2 28.4
10:50 1024 30.24 853 25.19 15.3 59.5 31 -1.8 28.8
10:55 1024 30.24 853 25.19 15.9 60.7 29 -1.8 28.7
11:00 1024 30.24 853 25.19 16.3 61.3 27 -2.5 27.5
11:05 1024 30.24 853 25.19 16.3 61.3 29 -1.5 29.4
11:10 1024 30.24 853 25.19 16.3 61.4 28 -2.1 28.3
11:15 1024 30.24 853 25.19 17 62.6 27 -1.8 28.7
11:20 1024 30.24 853 25.19 17.2 63 29 -1 30.1
11:25 1024 30.24 853 25.19 16.5 61.7 29 -1.6 29.2
11:30 1024 30.24 853 25.19 16 60.9 31 -1.2 29.9
11:35 1024 30.24 853 25.19 15.9 60.6 31 -1.1 30
11:40 1024 30.24 853 25.19 16 60.9 30 -1.5 29.4
11:45 1024 30.24 853 25.19 16.7 62.1 31 -0.3 31.4
11:50 1024 30.24 853 25.19 15.7 60.2 33 -0.5 31
11:55 1024 30.24 853 25.19 16.7 62 32 -0 32
12:00 1024 30.24 853 25.19 17.2 62.9 31 -0.2 31.7
12:05 1024 30.24 853 25.19 17.4 63.3 29 -0.5 31.1
12:10 1024 30.24 853 25.19 17.4 63.4 30 -0.3 31.4
12:15 1024 30.24 853 25.19 17.3 63.1 30 -0.2 31.7
12:20 1024 30.24 853 25.19 17.2 63 31 0.2 32.3
12:25 1024 30.24 853 25.19 17.9 64.2 30 0.4 32.7
12:30 1024 30.24 853 25.19 18.5 65.4 29 0.5 33
12:35 1024 30.24 853 25.19 18.3 64.9 31 1.1 33.9
12:40 1024 30.24 853 25.19 17.8 64.1 32 0.9 33.7
12:45 1024 30.24 853 25.19 17.1 62.9 32 0.3 32.5
12:50 1024 30.24 853 25.19 18.1 64.7 30 0.4 32.7
12:55 1024 30.24 853 25.19 17.4 63.3 32 0.8 33.4
13:00 1024 30.24 853 25.19 16.7 62 32 0 32
13:05 1024 30.24 853 25.19 17.7 63.8 31 0.6 33.2
13:10 1024 30.24 853 25.19 18.4 65.1 29 0.3 32.6
13:15 1024 30.24 853 25.19 18.7 65.6 29 0.5 32.9
13:20 1023 30.21 853 25.19 18.6 65.5 31 1.3 34.3
13:25 1023 30.21 853 25.19 18.5 65.3 30 0.5 32.9
13:30 1023 30.21 853 25.19 18.5 65.3 32 1.7 35
13:35 1023 30.21 852 25.16 18.8 65.8 30 0.9 33.7
13:40 1023 30.21 853 25.19 19.3 66.7 29 0.8 33.4
13:45 1023 30.21 852 25.16 19.5 67.2 28 0.6 33.2
13:50 1023 30.21 852 25.16 18.9 66 30 1 33.8
13:55 1023 30.21 852 25.16 19.6 67.2 29 1.3 34.3
14:00 1023 30.21 852 25.16 19.1 66.4 32 2.2 35.9
14:05 1023 30.21 852 25.16 19.4 67 29 1.2 34.1
14:10 1023 30.21 852 25.16 19.9 67.9 29 1.7 35.1
14:15 1023 30.21 852 25.16 19.4 66.9 30 1.5 34.8
14:20 1023 30.21 852 25.16 20.2 68.3 29 1.5 34.7
14:25 1023 30.21 852 25.16 20.4 68.6 28 1.6 34.8
14:30 1023 30.21 852 25.16 20.8 69.4 28 1.7 35
14:35 1023 30.21 852 25.16 20.4 68.7 28 1.7 35
14:40 1023 30.21 852 25.16 20.2 68.4 30 2.2 35.9
14:45 1023 30.21 852 25.16 19.7 67.4 30 1.7 35
14:50 1023 30.21 852 25.16 20.2 68.3 28 1.1 34.1
14:55 1023 30.21 852 25.16 20.4 68.7 29 2 35.6
15:00 1023 30.21 852 25.16 20.6 69.1 29 2 35.6
15:05 1023 30.21 852 25.16 20.9 69.6 28 1.8 35.3
15:10 1023 30.21 852 25.16 21 69.9 28 1.9 35.4
15:15 1023 30.21 852 25.16 21.5 70.7 28 2.3 36.2
15:20 1023 30.21 852 25.16 21.3 70.3 28 2.4 36.4
15:25 1023 30.21 852 25.16 20.3 68.5 29 1.7 35.1
15:30 1023 30.21 852 25.16 21.4 70.5 29 2.6 36.7
15:35 1022 30.18 852 25.16 20.9 69.6 28 1.8 35.3
15:40 1022 30.18 852 25.16 21.4 70.5 28 2.2 36
15:45 1022 30.18 852 25.16 21.2 70.2 28 1.9 35.5
15:50 1022 30.18 852 25.16 20.8 69.5 28 1.9 35.4
15:55 1022 30.18 851 25.13 20.5 68.9 29 2.1 35.8
16:00 1022 30.18 851 25.13 20.7 69.2 30 2.6 36.7
16:05 1022 30.18 851 25.13 21.1 70.1 28 2.1 35.9
16:10 1022 30.18 851 25.13 21.8 71.3 27 2.4 36.3
16:15 1022 30.18 851 25.13 21.7 71.1 27 2.3 36.1
16:20 1022 30.18 851 25.13 21.9 71.5 28 2.8 37
16:25 1022 30.18 851 25.13 21.5 70.6 28 2.2 35.9
16:30 1022 30.18 851 25.13 22 71.6 27 2.6 36.7
16:35 1022 30.18 851 25.13 21.9 71.4 29 3 37.5
16:40 1022 30.18 851 25.13 22.1 71.7 26 2.1 35.8
16:45 1022 30.18 851 25.13 21.7 71.1 27 2.4 36.2
16:50 1022 30.18 851 25.13 22.6 72.7 26 2.3 36.1
16:55 1022 30.18 851 25.13 22.7 72.8 27 2.7 36.9
17:00 1022 30.18 851 25.13 21.6 71 27 2.3 36.1
17:05 1022 30.18 851 25.13 22.3 72.2 26 2.3 36.2
17:10 1022 30.18 851 25.13 22.4 72.3 27 3 37.3
17:15 1022 30.18 851 25.13 22.5 72.4 27 2.6 36.7
17:20 1022 30.18 851 25.13 22.3 72.2 27 2.6 36.7
17:25 1022 30.18 851 25.13 22.5 72.5 27 2.6 36.6
17:30 1022 30.18 851 25.13 23 73.4 27 3 37.4
17:35 1022 30.18 851 25.13 22.3 72.1 26 2.2 35.9
17:40 1022 30.18 851 25.13 22.5 72.5 27 2.7 36.9
17:45 1022 30.18 851 25.13 21.8 71.2 27 2.2 35.9
17:50 1022 30.18 851 25.13 21.9 71.4 27 2.5 36.5
17:55 1022 30.18 851 25.13 21.9 71.5 28 2.7 36.9
18:00 1022 30.18 851 25.13 22.6 72.7 27 2.7 36.9
18:05 1022 30.18 851 25.13 22.7 72.8 27 2.8 37.1
18:10 1022 30.18 851 25.13 22.3 72.1 27 2.5 36.5
18:15 1021 30.15 851 25.13 22.2 71.9 28 3.2 37.7
18:20 1021 30.15 851 25.13 22 71.6 27 2.2 36
18:25 1022 30.18 851 25.13 22.6 72.6 26 2.6 36.6
18:30 1021 30.15 851 25.13 22.9 73.2 26 2.5 36.5
18:35 1021 30.15 851 25.13 22.9 73.1 27 3 37.4
18:40 1021 30.15 851 25.13 23 73.4 26 2.7 36.9
18:45 1021 30.15 851 25.13 22.9 73.1 26 2.7 36.9
18:50 1021 30.15 851 25.13 22.7 72.8 26 2.5 36.5
18:55 1021 30.15 851 25.13 22.6 72.6 27 3 37.3
19:00 1021 30.15 850 25.1 22.6 72.7 26 2.4 36.3
19:05 1021 30.15 850 25.1 22.7 72.9 26 2.6 36.6
19:10 1021 30.15 850 25.1 22.7 72.9 26 2.6 36.6
19:15 1021 30.15 850 25.1 22.5 72.5 27 2.7 36.8
19:20 1021 30.15 851 25.13 22.8 73 25 2.2 35.9
19:25 1021 30.15 851 25.13 22.9 73.1 26 2.7 36.9
19:30 1021 30.15 851 25.13 22.3 72.1 27 2.7 36.8
19:35 1021 30.15 851 25.13 21.9 71.4 28 2.5 36.6
19:40 1021 30.15 851 25.13 21.7 71 28 2.6 36.8
19:45 1021 30.15 851 25.13 21.5 70.7 29 2.8 37.1
19:50 1021 30.15 851 25.13 21.6 70.9 29 3 37.3
19:55 1021 30.15 851 25.13 21.5 70.6 28 2.5 36.5
20:00 1021 30.15 850 25.1 21.2 70.2 29 2.6 36.6
20:05 1021 30.15 851 25.13 21.2 70.1 29 2.7 36.9
20:10 1021 30.15 850 25.1 21.2 70.2 28 2.4 36.3
20:15 1021 30.15 851 25.13 21.3 70.3 31 3.5 38.2
20:20 1021 30.15 851 25.13 21 69.8 32 4 39.3
20:25 1021 30.15 851 25.13 20.8 69.4 33 3.9 39
20:30 1021 30.15 851 25.13 20.6 69.1 35 4.7 40.5
20:35 1021 30.15 850 25.1 20.5 68.9 38 5.8 42.5
20:40 1021 30.15 850 25.1 20.3 68.6 37 5.2 41.3
20:45 1021 30.15 850 25.1 20.1 68.3 35 4.5 40.1
20:50 1021 30.15 850 25.1 20.1 68.1 36 4.7 40.5
20:55 1021 30.15 851 25.13 19.9 67.8 39 5.6 42.1
21:00 1021 30.15 851 25.13 19.7 67.5 39 5.4 41.7
21:05 1021 30.15 851 25.13 19.3 66.8 43 6.5 43.8
21:10 1021 30.15 851 25.13 18.7 65.6 44 6.4 43.6
21:15 1021 30.15 851 25.13 18.5 65.2 46 6.7 44.1
21:20 1021 30.15 851 25.13 18 64.3 48 7 44.6
21:25 1021 30.15 851 25.13 17.6 63.7 48 6.7 44
21:30 1021 30.15 851 25.13 17.3 63.2 53 7.6 45.7
21:35 1021 30.15 851 25.13 17 62.6 50 6.7 44
21:40 1021 30.15 851 25.13 16.6 61.8 52 6.8 44.3
21:45 1021 30.15 851 25.13 16.3 61.3 53 6.8 44.3
21:50 1021 30.15 851 25.13 16.1 60.9 54 6.8 44.3
21:55 1021 30.15 851 25.13 15.7 60.3 56 7.1 44.7
22:00 1022 30.18 851 25.13 15.3 59.5 55 6.3 43.3
22:05 1022 30.18 851 25.13 15.1 59.3 54 5.9 42.7
22:10 1022 30.18 851 25.13 14.9 58.8 55 6 42.7
22:15 1022 30.18 851 25.13 14.8 58.7 55 5.9 42.6
22:20 1022 30.18 851 25.13 14.8 58.6 55 5.8 42.4
22:25 1022 30.18 851 25.13 14.7 58.5 55 5.9 42.6
22:30 1022 30.18 851 25.13 14.6 58.3 56 5.9 42.7
22:35 1022 30.18 851 25.13 14.5 58.1 56 5.8 42.5
22:40 1022 30.18 851 25.13 14.5 58.2 54 5.5 41.9
22:45 1022 30.18 851 25.13 14.8 58.6 54 5.7 42.2
22:50 1022 30.18 851 25.13 14.9 58.7 53 5.4 41.7
22:55 1022 30.18 851 25.13 14.9 58.7 53 5.5 41.8
23:00 1022 30.18 851 25.13 14.7 58.5 54 5.5 41.9
23:05 1022 30.18 851 25.13 14.6 58.2 55 5.6 42.1
23:10 1022 30.18 851 25.13 14.4 57.9 56 5.7 42.3
23:15 1022 30.18 851 25.13 14.3 57.7 55 5.4 41.7
23:20 1022 30.18 851 25.13 14.4 57.9 54 5.2 41.4
23:25 1022 30.18 851 25.13 14.5 58.1 53 5.1 41.2
23:30 1022 30.18 851 25.13 14.6 58.3 53 5.3 41.5
23:35 1022 30.18 851 25.13 14.5 58.1 53 5.1 41.3
23:40 1022 30.18 851 25.13 14.5 58.1 53 5.1 41.2
23:45 1022 30.18 851 25.13 14.6 58.2 53 5.2 41.4
23:50 1022 30.18 851 25.13 14.5 58.1 53 5.1 41.2
23:55 1022 30.18 851 25.13 14.5 58.1 53 5 41
24:00 1022 30.18 851 25.13 14.5 58.2 53 5.2 41.4